createdAt,value
2018-02-15T00:02:15.728Z,19.80
2018-02-15T00:04:44.760Z,19.20
2018-02-15T00:07:13.004Z,17.57
2018-02-15T00:09:41.300Z,17.20
2018-02-15T00:12:10.281Z,20.27
2018-02-15T00:14:38.534Z,20.00
2018-02-15T00:17:07.550Z,18.27
2018-02-15T00:19:35.862Z,21.40
2018-02-15T00:22:04.107Z,21.27
2018-02-15T00:24:33.769Z,15.93
2018-02-15T00:27:03.107Z,19.60
2018-02-15T00:29:31.585Z,18.77
2018-02-15T00:31:59.842Z,22.67
2018-02-15T00:34:28.864Z,18.50
2018-02-15T00:36:57.114Z,21.10
2018-02-15T00:39:25.471Z,18.23
2018-02-15T00:41:53.746Z,18.97
2018-02-15T00:44:22.859Z,20.67
2018-02-15T00:46:51.126Z,22.00
2018-02-15T00:49:20.252Z,18.00
2018-02-15T00:51:48.520Z,19.03
2018-02-15T00:54:16.779Z,19.63
2018-02-15T00:56:45.810Z,20.90
2018-02-15T00:59:14.051Z,20.40
2018-02-15T01:01:42.318Z,19.90
2018-02-15T01:04:10.655Z,20.47
2018-02-15T01:06:38.918Z,19.97
2018-02-15T01:09:07.176Z,18.23
2018-02-15T01:11:35.506Z,16.00
2018-02-15T01:14:03.923Z,19.67
2018-02-15T01:16:32.218Z,19.97
2018-02-15T01:19:00.529Z,15.80
2018-02-15T01:21:28.769Z,19.27
2018-02-15T01:23:57.035Z,18.23
2018-02-15T01:26:25.290Z,19.67
2018-02-15T01:28:53.601Z,17.93
2018-02-15T01:31:21.870Z,15.60
2018-02-15T01:33:50.182Z,17.50
2018-02-15T01:36:18.466Z,16.00
2018-02-15T01:38:47.473Z,16.10
2018-02-15T01:41:15.738Z,17.97
2018-02-15T01:43:44.783Z,19.23
2018-02-15T01:46:13.019Z,19.80
2018-02-15T01:48:41.406Z,15.33
2018-02-15T01:51:09.657Z,15.30
2018-02-15T01:53:38.689Z,16.10
2018-02-15T01:56:06.952Z,21.77
2018-02-15T01:58:35.275Z,19.43
2018-02-15T02:01:03.487Z,17.40
2018-02-15T02:03:31.791Z,19.87
2018-02-15T02:06:00.043Z,12.83
2018-02-15T02:08:28.312Z,14.00
2018-02-15T02:10:56.555Z,15.47
2018-02-15T02:13:24.818Z,14.67
2018-02-15T02:15:53.166Z,18.23
2018-02-15T02:18:21.526Z,14.33
2018-02-15T02:20:49.784Z,18.73
2018-02-15T02:23:18.042Z,15.13
2018-02-15T02:25:47.074Z,19.10
2018-02-15T02:28:15.316Z,19.40
2018-02-15T02:30:43.657Z,16.70
2018-02-15T02:33:11.934Z,14.47
2018-02-15T02:35:40.271Z,12.70
2018-02-15T02:38:08.609Z,20.53
2018-02-15T02:40:36.855Z,17.60
2018-02-15T02:43:05.166Z,14.83
2018-02-15T02:45:34.201Z,17.03
2018-02-15T02:48:02.475Z,16.47
2018-02-15T02:50:30.800Z,15.43
2018-02-15T02:52:59.025Z,15.23
2018-02-15T02:55:27.286Z,16.87
2018-02-15T02:57:55.533Z,18.63
2018-02-15T03:00:24.561Z,20.13
2018-02-15T03:02:52.874Z,17.17
2018-02-15T03:05:21.148Z,18.37
2018-02-15T03:07:49.385Z,21.50
2018-02-15T03:10:17.678Z,18.53
2018-02-15T03:12:46.730Z,17.27
2018-02-15T03:15:14.998Z,18.70
2018-02-15T03:17:43.386Z,21.60
2018-02-15T03:20:11.798Z,21.60
2018-02-15T03:22:40.063Z,21.53
2018-02-15T03:25:08.310Z,18.63
2018-02-15T03:27:36.571Z,19.00
2018-02-15T03:30:05.603Z,28.70
2018-02-15T03:32:33.894Z,23.23
2018-02-15T03:35:02.200Z,27.07
2018-02-15T03:37:30.495Z,27.03
2018-02-15T03:39:59.538Z,23.97
2018-02-15T03:42:27.911Z,24.67
2018-02-15T03:44:56.193Z,27.87
2018-02-15T03:47:24.447Z,27.40
2018-02-15T03:49:52.714Z,28.63
2018-02-15T03:52:20.976Z,32.77
2018-02-15T03:54:49.254Z,29.73
2018-02-15T03:57:17.595Z,26.57
2018-02-15T03:59:45.826Z,31.43
2018-02-15T04:02:14.191Z,33.00
2018-02-15T04:04:42.627Z,35.83
2018-02-15T04:07:10.846Z,42.63
2018-02-15T04:09:39.116Z,38.87
2018-02-15T04:12:07.372Z,31.93
2018-02-15T04:14:35.655Z,39.00
2018-02-15T04:17:03.898Z,41.70
2018-02-15T04:19:32.163Z,40.23
2018-02-15T04:22:00.411Z,35.93
2018-02-15T04:24:28.662Z,36.90
2018-02-15T04:26:56.996Z,33.17
2018-02-15T04:29:25.235Z,44.07
2018-02-15T04:31:53.492Z,46.30
2018-02-15T04:34:21.913Z,40.87
2018-02-15T04:36:50.195Z,41.77
2018-02-15T04:39:18.535Z,49.20
2018-02-15T04:41:46.821Z,41.97
2018-02-15T04:44:15.070Z,43.07
2018-02-15T04:46:43.431Z,44.67
2018-02-15T04:49:11.702Z,55.40
2018-02-15T04:51:39.979Z,70.93
2018-02-15T04:54:08.242Z,56.53
2018-02-15T04:56:36.519Z,46.57
2018-02-15T04:59:04.800Z,42.37
2018-02-15T05:01:33.848Z,43.13
2018-02-15T05:04:02.115Z,51.60
2018-02-15T05:06:30.371Z,39.00
2018-02-15T05:08:58.638Z,46.23
2018-02-15T05:11:26.887Z,49.37
2018-02-15T05:13:55.174Z,49.93
2018-02-15T05:16:23.443Z,52.73
2018-02-15T05:18:52.463Z,53.43
2018-02-15T05:21:20.731Z,58.73
2018-02-15T05:23:49.019Z,54.13
2018-02-15T05:26:17.262Z,56.47
2018-02-15T05:28:45.545Z,65.10
2018-02-15T05:31:13.834Z,55.83
2018-02-15T05:33:42.097Z,56.80
2018-02-15T05:36:10.339Z,63.57
2018-02-15T05:38:39.387Z,56.87
2018-02-15T05:41:07.606Z,69.80
2018-02-15T05:43:36.057Z,57.93
2018-02-15T05:46:04.302Z,55.43
2018-02-15T05:48:32.581Z,57.60
2018-02-15T05:51:00.822Z,68.60
2018-02-15T05:53:29.110Z,64.10
2018-02-15T05:55:57.409Z,60.93
2018-02-15T05:58:25.661Z,60.33
2018-02-15T06:00:53.941Z,55.83
2018-02-15T06:03:22.208Z,58.60
2018-02-15T06:05:50.543Z,65.03
2018-02-15T06:08:18.796Z,54.33
2018-02-15T06:10:47.271Z,49.20
2018-02-15T06:13:15.684Z,46.50
2018-02-15T06:15:44.731Z,56.30
2018-02-15T06:18:12.990Z,48.63
2018-02-15T06:20:41.237Z,48.77
2018-02-15T06:23:10.274Z,59.60
2018-02-15T06:25:38.529Z,47.40
2018-02-15T06:28:06.828Z,55.20
2018-02-15T06:30:35.148Z,49.83
2018-02-15T06:33:04.234Z,47.03
2018-02-15T06:35:32.495Z,47.73
2018-02-15T06:38:00.747Z,48.33
2018-02-15T06:40:29.118Z,47.07
2018-02-15T06:42:57.398Z,46.93
2018-02-15T06:45:25.642Z,42.40
2018-02-15T06:47:53.910Z,35.53
2018-02-15T06:50:22.215Z,42.70
2018-02-15T06:52:50.542Z,41.40
2018-02-15T06:55:18.803Z,41.50
2018-02-15T06:57:47.231Z,39.27
2018-02-15T07:00:15.476Z,37.60
2018-02-15T07:02:43.787Z,39.37
2018-02-15T07:05:12.178Z,38.77
2018-02-15T07:07:40.570Z,40.20
2018-02-15T07:10:08.829Z,35.37
2018-02-15T07:12:37.138Z,42.77
2018-02-15T07:15:05.415Z,43.47
2018-02-15T07:17:33.796Z,42.03
2018-02-15T07:20:02.010Z,35.33
2018-02-15T07:22:30.349Z,41.23
2018-02-15T07:24:58.566Z,44.70
2018-02-15T07:27:26.881Z,40.03
2018-02-15T07:29:55.158Z,39.90
2018-02-15T07:32:23.427Z,47.27
2018-02-15T07:34:51.734Z,39.27
2018-02-15T07:37:20.747Z,38.00
2018-02-15T07:39:49.024Z,36.50
2018-02-15T07:42:17.298Z,35.57
2018-02-15T07:44:45.576Z,32.90
2018-02-15T07:47:13.878Z,42.33
2018-02-15T07:49:42.147Z,32.50
2018-02-15T07:52:10.386Z,38.83
2018-02-15T07:54:38.660Z,38.33
2018-02-15T07:57:07.937Z,37.67
2018-02-15T07:59:36.178Z,33.60
2018-02-15T08:02:04.436Z,39.30
2018-02-15T08:04:32.694Z,39.13
2018-02-15T08:07:00.963Z,32.00
2018-02-15T08:09:29.219Z,31.40
2018-02-15T08:11:58.243Z,34.20
2018-02-15T08:14:26.495Z,35.90
2018-02-15T08:16:55.534Z,40.03
2018-02-15T08:19:23.803Z,29.47
2018-02-15T08:21:52.050Z,37.67
2018-02-15T08:24:20.298Z,32.47
2018-02-15T08:26:49.418Z,31.27
2018-02-15T08:29:17.694Z,35.33
2018-02-15T08:31:45.977Z,30.37
2018-02-15T08:34:14.248Z,28.83
2018-02-15T08:36:42.519Z,28.77
2018-02-15T08:39:10.812Z,36.40
2018-02-15T08:41:39.066Z,38.73
2018-02-15T08:44:07.412Z,38.20
2018-02-15T08:46:35.650Z,37.83
2018-02-15T08:49:03.898Z,38.37
2018-02-15T08:51:32.195Z,28.67
2018-02-15T08:54:00.492Z,38.47
2018-02-15T08:56:30.250Z,33.20
2018-02-15T08:58:58.662Z,38.70
2018-02-15T09:01:26.931Z,37.07
2018-02-15T09:03:55.231Z,31.53
2018-02-15T09:06:23.495Z,32.63
2018-02-15T09:08:51.750Z,36.77
2018-02-15T09:11:20.019Z,27.77
2018-02-15T09:13:48.289Z,30.77
2018-02-15T09:16:16.546Z,35.80
2018-02-15T09:18:44.818Z,39.63
2018-02-15T09:21:13.190Z,38.23
2018-02-15T09:23:43.022Z,38.53
2018-02-15T09:26:11.282Z,35.17
2018-02-15T09:28:40.329Z,43.23
2018-02-15T09:31:08.655Z,49.23
2018-02-15T09:33:37.663Z,36.27
2018-02-15T09:36:05.922Z,41.37
2018-02-15T09:38:34.207Z,37.70
2018-02-15T09:41:02.538Z,44.60
2018-02-15T09:43:32.291Z,45.50
2018-02-15T09:46:00.565Z,46.17
2018-02-15T09:48:28.907Z,45.60
2018-02-15T09:50:57.143Z,43.07
2018-02-15T09:53:25.457Z,47.73
2018-02-15T09:55:53.807Z,56.03
2018-02-15T09:58:23.634Z,48.67
2018-02-15T10:00:52.727Z,51.10
2018-02-15T10:03:21.825Z,54.17
2018-02-15T10:05:50.142Z,49.47
2018-02-15T10:08:19.284Z,55.53
2018-02-15T10:10:47.584Z,51.67
2018-02-15T10:13:15.937Z,57.10
2018-02-15T10:15:44.332Z,50.87
2018-02-15T10:18:12.670Z,50.53
2018-02-15T10:20:40.927Z,57.30
2018-02-15T10:23:09.221Z,51.10
2018-02-15T10:25:37.466Z,65.80
2018-02-15T10:28:05.731Z,62.27
2018-02-15T10:30:33.995Z,55.97
2018-02-15T10:33:03.030Z,67.57
2018-02-15T10:35:31.284Z,78.70
2018-02-15T10:37:59.834Z,90.37
2018-02-15T10:40:28.104Z,63.73
2018-02-15T10:42:57.171Z,72.63
2018-02-15T10:45:25.459Z,80.27
2018-02-15T10:47:53.962Z,66.37
2018-02-15T10:50:23.048Z,76.40
2018-02-15T10:52:51.427Z,89.97
2018-02-15T10:55:19.663Z,83.40
2018-02-15T10:57:47.933Z,68.87
2018-02-15T11:00:16.457Z,52.40
2018-02-15T11:02:44.764Z,57.00
2018-02-15T11:05:13.033Z,60.87
2018-02-15T11:07:41.369Z,67.50
2018-02-15T11:10:09.872Z,66.40
2018-02-15T11:12:38.963Z,64.90
2018-02-15T11:15:08.157Z,71.23
2018-02-15T11:17:37.296Z,65.93
2018-02-15T11:20:05.550Z,68.20
2018-02-15T11:22:33.939Z,63.67
2018-02-15T11:25:02.238Z,51.07
2018-02-15T11:27:30.517Z,70.03
2018-02-15T11:29:58.807Z,62.97
2018-02-15T11:32:28.572Z,55.73
2018-02-15T11:34:56.835Z,55.10
2018-02-15T11:37:25.254Z,48.53
2018-02-15T11:39:53.535Z,61.90
2018-02-15T11:42:21.815Z,51.70
2018-02-15T11:44:50.094Z,53.47
2018-02-15T11:47:18.492Z,43.90
2018-02-15T11:49:47.531Z,51.00
2018-02-15T11:52:15.796Z,50.03
2018-02-15T11:54:44.046Z,52.40
2018-02-15T11:57:13.108Z,54.30
2018-02-15T11:59:41.363Z,53.63
2018-02-15T12:02:09.627Z,52.00
2018-02-15T12:04:37.891Z,47.23
2018-02-15T12:07:06.154Z,46.67
2018-02-15T12:09:35.310Z,48.73
2018-02-15T12:12:03.586Z,48.30
2018-02-15T12:14:31.819Z,45.00
2018-02-15T12:17:00.110Z,41.53
2018-02-15T12:19:28.421Z,45.87
2018-02-15T12:21:56.735Z,48.87
2018-02-15T12:24:25.751Z,46.77
2018-02-15T12:26:53.990Z,47.33
2018-02-15T12:29:23.037Z,50.73
2018-02-15T12:31:51.267Z,44.17
2018-02-15T12:34:19.538Z,50.83
2018-02-15T12:36:47.903Z,53.70
2018-02-15T12:39:16.941Z,43.10
2018-02-15T12:41:45.188Z,45.60
2018-02-15T12:44:13.460Z,46.03
2018-02-15T12:46:41.758Z,46.90
2018-02-15T12:49:10.023Z,46.57
2018-02-15T12:51:38.270Z,43.87
2018-02-15T12:54:06.560Z,41.27
2018-02-15T12:56:34.802Z,51.30
2018-02-15T12:59:03.911Z,45.43
2018-02-15T13:01:32.238Z,47.83
2018-02-15T13:04:00.530Z,46.23
2018-02-15T13:06:28.777Z,52.07
2018-02-15T13:08:57.204Z,50.27
2018-02-15T13:11:26.438Z,50.37
2018-02-15T13:13:54.850Z,50.70
2018-02-15T13:16:35.143Z,38.97
2018-02-15T13:19:15.208Z,49.40
2018-02-15T13:21:44.190Z,47.90
2018-02-15T13:24:13.267Z,47.83
2018-02-15T13:26:42.318Z,47.03
2018-02-15T13:29:10.580Z,47.67
2018-02-15T13:31:38.861Z,50.73
2018-02-15T13:34:07.107Z,45.37
2018-02-15T13:36:35.375Z,42.57
2018-02-15T13:39:03.622Z,50.57
2018-02-15T13:41:31.893Z,37.43
2018-02-15T13:44:00.207Z,48.20
2018-02-15T13:46:29.222Z,56.77
2018-02-15T13:48:57.516Z,48.53
2018-02-15T13:51:26.092Z,50.10
2018-02-15T13:53:54.335Z,50.83
2018-02-15T13:56:22.622Z,52.53
2018-02-15T13:58:50.845Z,49.17
2018-02-15T14:01:20.674Z,48.43
2018-02-15T14:03:48.882Z,46.63
2018-02-15T14:06:17.153Z,51.90
2018-02-15T14:08:45.452Z,54.77
2018-02-15T14:11:13.760Z,44.83
2018-02-15T14:13:42.171Z,40.87
2018-02-15T14:16:10.443Z,38.63
2018-02-15T14:18:38.749Z,47.90
2018-02-15T14:21:07.019Z,47.77
2018-02-15T14:23:35.275Z,44.77
2018-02-15T14:26:03.550Z,40.23
2018-02-15T14:28:31.827Z,52.00
2018-02-15T14:31:00.090Z,43.37
2018-02-15T14:33:29.131Z,47.57
2018-02-15T14:35:57.434Z,50.40
2018-02-15T14:38:26.468Z,47.40
2018-02-15T14:40:54.728Z,44.47
2018-02-15T14:43:23.046Z,39.00
2018-02-15T14:45:51.348Z,45.17
2018-02-15T14:48:19.622Z,42.07
2018-02-15T14:50:47.901Z,40.03
2018-02-15T14:53:16.226Z,40.13
2018-02-15T14:55:44.499Z,40.70
2018-02-15T14:58:12.757Z,41.77
2018-02-15T15:00:41.100Z,47.83
2018-02-15T15:03:09.352Z,47.80
2018-02-15T15:05:37.623Z,50.17
2018-02-15T15:08:05.971Z,41.50
2018-02-15T15:10:34.254Z,42.23
2018-02-15T15:13:02.506Z,43.07
2018-02-15T15:15:30.776Z,34.63
2018-02-15T15:17:59.803Z,43.37
2018-02-15T15:20:28.100Z,36.80
2018-02-15T15:22:56.351Z,40.20
2018-02-15T15:25:24.879Z,38.10
2018-02-15T15:27:53.102Z,43.70
2018-02-15T15:30:21.416Z,45.43
2018-02-15T15:32:49.696Z,49.70
2018-02-15T15:35:17.952Z,49.97
2018-02-15T15:37:46.380Z,46.77
2018-02-15T15:40:15.426Z,37.70
2018-02-15T15:42:43.726Z,43.13
2018-02-15T15:45:12.747Z,42.63
2018-02-15T15:47:41.017Z,43.60
2018-02-15T15:50:09.305Z,43.43
2018-02-15T15:52:37.570Z,49.07
2018-02-15T15:55:05.880Z,48.60
2018-02-15T15:57:34.155Z,40.77
2018-02-15T16:00:02.395Z,45.00
2018-02-15T16:02:30.676Z,46.23
2018-02-15T16:04:58.963Z,43.07
2018-02-15T16:07:27.223Z,42.23
2018-02-15T16:09:55.502Z,45.63
2018-02-15T16:12:23.872Z,54.27
2018-02-15T16:14:52.055Z,54.07
2018-02-15T16:17:20.290Z,54.83
2018-02-15T16:19:49.348Z,67.27
2018-02-15T16:22:17.625Z,66.73
2018-02-15T16:24:45.918Z,64.43
2018-02-15T16:27:14.183Z,65.27
2018-02-15T16:29:42.482Z,70.07
2018-02-15T16:32:10.743Z,61.67
2018-02-15T16:34:39.050Z,72.63
2018-02-15T16:37:08.112Z,71.70
2018-02-15T16:39:36.377Z,67.33
2018-02-15T16:42:04.663Z,66.10
2018-02-15T16:44:32.939Z,55.23
2018-02-15T16:47:01.197Z,62.53
2018-02-15T16:49:29.468Z,55.70
2018-02-15T16:51:57.751Z,53.23
2018-02-15T16:54:26.130Z,49.90
2018-02-15T16:56:54.516Z,44.10
2018-02-15T16:59:22.781Z,53.10
2018-02-15T17:01:51.094Z,49.80
2018-02-15T17:04:20.104Z,57.70
2018-02-15T17:06:48.904Z,46.67
2018-02-15T17:09:17.184Z,45.50
2018-02-15T17:11:45.571Z,48.03
2018-02-15T17:14:13.823Z,46.97
2018-02-15T17:16:42.137Z,50.00
2018-02-15T17:19:10.399Z,50.37
2018-02-15T17:21:38.674Z,55.63
2018-02-15T17:24:07.031Z,52.03
2018-02-15T17:26:35.298Z,47.53
2018-02-15T17:29:03.711Z,46.37
2018-02-15T17:31:31.939Z,48.07
2018-02-15T17:34:00.251Z,47.53
2018-02-15T17:36:28.514Z,51.10
2018-02-15T17:38:56.798Z,47.60
2018-02-15T17:41:25.066Z,44.07
2018-02-15T17:43:53.350Z,56.50
2018-02-15T17:46:21.607Z,44.53
2018-02-15T17:48:49.890Z,48.97
2018-02-15T17:51:18.446Z,51.27
2018-02-15T17:53:46.768Z,46.47
2018-02-15T17:56:15.035Z,52.13
2018-02-15T17:58:43.451Z,48.60
2018-02-15T18:01:11.824Z,43.07
2018-02-15T18:03:40.063Z,46.17
2018-02-15T18:06:08.350Z,44.13
2018-02-15T18:08:36.627Z,54.77
2018-02-15T18:11:04.896Z,42.00
2018-02-15T18:13:33.193Z,49.40
2018-02-15T18:16:01.451Z,42.53
2018-02-15T18:18:29.797Z,45.13
2018-02-15T18:20:58.048Z,51.50
2018-02-15T18:23:26.307Z,48.57
2018-02-15T18:25:54.572Z,45.53
2018-02-15T18:28:22.817Z,42.20
2018-02-15T18:30:51.135Z,45.20
2018-02-15T18:33:19.568Z,49.60
2018-02-15T18:35:47.882Z,50.63
2018-02-15T18:38:16.166Z,36.93
2018-02-15T18:40:45.190Z,42.97
2018-02-15T18:43:13.483Z,55.23
2018-02-15T18:45:41.735Z,52.23
2018-02-15T18:48:10.030Z,52.47
2018-02-15T18:50:38.445Z,45.47
2018-02-15T18:53:07.529Z,40.50
2018-02-15T18:55:35.772Z,41.97
2018-02-15T18:58:04.048Z,45.33
2018-02-15T19:00:32.279Z,46.97
2018-02-15T19:03:01.328Z,42.73
2018-02-15T19:05:29.577Z,48.33
2018-02-15T19:07:57.891Z,45.03
2018-02-15T19:10:26.157Z,47.27
2018-02-15T19:12:54.450Z,53.47
2018-02-15T19:15:22.702Z,54.60
2018-02-15T19:17:51.108Z,58.60
2018-02-15T19:20:20.320Z,58.90
2018-02-15T19:22:49.382Z,56.80
2018-02-15T19:25:17.626Z,60.30
2018-02-15T19:27:45.940Z,64.17
2018-02-15T19:30:15.035Z,74.93
2018-02-15T19:32:44.054Z,65.73
2018-02-15T19:35:13.264Z,69.20
2018-02-15T19:37:41.534Z,70.37
2018-02-15T19:40:10.568Z,75.43
2018-02-15T19:42:38.855Z,63.40
2018-02-15T19:45:07.151Z,61.30
2018-02-15T19:47:35.411Z,68.63
2018-02-15T19:50:04.850Z,63.00
2018-02-15T19:52:33.136Z,66.40
2018-02-15T19:55:01.479Z,67.17
2018-02-15T19:57:29.775Z,63.93
2018-02-15T19:59:58.084Z,57.53
2018-02-15T20:02:26.375Z,64.27
2018-02-15T20:04:54.633Z,75.67
2018-02-15T20:07:23.016Z,58.23
2018-02-15T20:09:51.272Z,61.87
2018-02-15T20:12:19.587Z,61.87
2018-02-15T20:14:49.420Z,86.80
2018-02-15T20:17:17.699Z,72.23
2018-02-15T20:19:46.727Z,93.00
2018-02-15T20:22:15.031Z,64.30
2018-02-15T20:24:43.313Z,73.00
2018-02-15T20:27:11.553Z,56.33
2018-02-15T20:29:39.822Z,50.60
2018-02-15T20:32:08.117Z,52.80
2018-02-15T20:34:36.381Z,60.83
2018-02-15T20:37:04.674Z,49.37
2018-02-15T20:39:33.039Z,62.40
2018-02-15T20:42:01.388Z,71.77
2018-02-15T20:44:30.488Z,75.97
2018-02-15T20:46:59.556Z,82.37
2018-02-15T20:49:27.822Z,77.37
2018-02-15T20:51:56.427Z,64.73
2018-02-15T20:54:24.743Z,74.17
2018-02-15T20:56:53.022Z,73.00
2018-02-15T20:59:21.339Z,62.33
2018-02-15T21:01:49.652Z,72.23
2018-02-15T21:04:18.134Z,68.83
2018-02-15T21:06:46.398Z,56.53
2018-02-15T21:09:14.684Z,57.90
2018-02-15T21:11:42.926Z,56.93
2018-02-15T21:14:11.992Z,55.30
2018-02-15T21:16:40.281Z,57.47
2018-02-15T21:19:08.536Z,61.90
2018-02-15T21:21:36.802Z,66.00
2018-02-15T21:24:05.212Z,63.80
2018-02-15T21:26:33.484Z,63.97
2018-02-15T21:29:01.762Z,56.90
2018-02-15T21:31:30.029Z,56.53
2018-02-15T21:33:58.304Z,55.47
2018-02-15T21:36:26.609Z,59.73
2018-02-15T21:38:54.855Z,69.50
2018-02-15T21:41:23.119Z,72.50
2018-02-15T21:43:51.373Z,53.60
2018-02-15T21:46:19.640Z,64.37
2018-02-15T21:48:48.007Z,98.90
2018-02-15T21:51:16.306Z,77.13
2018-02-15T21:53:44.580Z,88.67
2018-02-15T21:56:12.814Z,75.77
2018-02-15T21:58:41.086Z,73.17
2018-02-15T22:01:09.366Z,64.47
2018-02-15T22:03:37.623Z,65.80
2018-02-15T22:06:06.648Z,59.03
2018-02-15T22:08:34.958Z,59.30
2018-02-15T22:11:03.198Z,68.37
2018-02-15T22:13:31.459Z,62.33
2018-02-15T22:15:59.700Z,69.30
2018-02-15T22:18:28.783Z,57.47
2018-02-15T22:20:57.072Z,76.47
2018-02-15T22:23:25.347Z,64.20
2018-02-15T22:25:53.607Z,66.33
2018-02-15T22:28:21.910Z,63.60
2018-02-15T22:30:51.046Z,62.53
2018-02-15T22:33:19.335Z,71.43
2018-02-15T22:35:47.702Z,57.47
2018-02-15T22:38:15.991Z,51.93
2018-02-15T22:40:44.288Z,55.23
2018-02-15T22:43:12.542Z,54.27
2018-02-15T22:45:41.624Z,60.80
2018-02-15T22:48:09.892Z,66.87
2018-02-15T22:50:38.158Z,68.10
2018-02-15T22:53:06.420Z,58.73
2018-02-15T22:55:34.721Z,64.10
2018-02-15T22:58:02.990Z,55.00
2018-02-15T23:00:31.259Z,65.23
2018-02-15T23:02:59.619Z,60.73
2018-02-15T23:05:27.894Z,57.70
2018-02-15T23:07:56.176Z,58.67
2018-02-15T23:10:24.458Z,81.53
2018-02-15T23:12:52.714Z,74.00
2018-02-15T23:15:20.979Z,58.33
2018-02-15T23:17:50.001Z,68.90
2018-02-15T23:20:18.259Z,67.50
2018-02-15T23:22:46.682Z,72.23
2018-02-15T23:25:14.986Z,69.03
2018-02-15T23:27:43.239Z,64.60
2018-02-15T23:30:11.476Z,65.00
2018-02-15T23:32:40.517Z,55.77
2018-02-15T23:35:08.965Z,64.57
2018-02-15T23:37:37.226Z,66.70
2018-02-15T23:40:05.510Z,69.97
2018-02-15T23:42:33.803Z,70.17
2018-02-15T23:45:02.058Z,72.73
2018-02-15T23:47:30.319Z,67.47
2018-02-15T23:49:58.579Z,73.67
2018-02-15T23:52:26.839Z,62.00
2018-02-15T23:54:55.848Z,75.63
2018-02-15T23:57:24.158Z,74.83
2018-02-15T23:59:52.415Z,69.30
